Time;durP1;ratioP1;P1;durP2;ratioP2;P2;SDS_P1;SDS_P2;PMS_P1;PMS_P2;Temp;Humidity;BMP_temperature;BMP_pressure;BME280_temperature;BME280_humidity;BME280_pressure;Samples;Min_cycle;Max_cycle;Signal;HPM_P1;HPM_P2
2022/08/22 00:00:10;;;;;;;3.30;1.90;;;18.10;99.90;;;;;;5060151;28;20217;-40
2022/08/22 00:02:47;;;;;;;3.17;1.90;;;18.10;99.90;;;;;;5077880;28;20198;-43
2022/08/22 00:05:28;;;;;;;6.60;2.40;;;18.10;99.90;;;;;;5064291;28;20213;-45
2022/08/22 00:08:07;;;;;;;4.63;2.10;;;18.10;99.90;;;;;;5058479;28;20210;-42
2022/08/22 00:10:51;;;;;;;4.73;2.37;;;18.10;99.90;;;;;;5063494;28;20214;-42
2022/08/22 00:13:25;;;;;;;3.90;2.10;;;18.10;99.90;;;;;;5063692;28;20197;-43
2022/08/22 00:15:58;;;;;;;6.10;2.90;;;18.00;99.90;;;;;;5061184;28;20202;-46
2022/08/22 00:18:30;;;;;;;4.97;2.37;;;18.00;99.90;;;;;;5070030;28;20222;-42
2022/08/22 00:21:06;;;;;;;4.43;2.40;;;18.10;99.90;;;;;;5061477;28;20234;-43
2022/08/22 00:23:41;;;;;;;6.93;2.47;;;18.10;99.90;;;;;;5060538;28;20202;-42
2022/08/22 00:26:19;;;;;;;7.00;2.57;;;18.10;99.90;;;;;;5076602;28;20225;-43
2022/08/22 00:28:49;;;;;;;8.33;2.83;;;18.10;99.90;;;;;;5079900;28;20193;-42
2022/08/22 00:31:25;;;;;;;4.67;2.30;;;18.10;99.90;;;;;;5066924;28;20699;-43
2022/08/22 00:34:00;;;;;;;5.80;2.13;;;18.10;99.90;;;;;;5065468;28;20228;-45
2022/08/22 00:36:33;;;;;;;5.57;2.57;;;18.10;99.90;;;;;;5063944;28;20232;-43
2022/08/22 00:39:09;;;;;;;6.13;2.57;;;18.00;99.90;;;;;;5056457;28;20818;-43
2022/08/22 00:41:59;;;;;;;4.57;2.00;;;18.10;99.90;;;;;;5062022;28;20218;-44
2022/08/22 00:44:53;;;;;;;3.37;2.60;;;18.10;99.90;;;;;;5079027;28;20217;-46
2022/08/22 00:47:44;;;;;;;4.80;2.27;;;18.10;99.90;;;;;;5075423;28;20205;-45
2022/08/22 00:50:45;;;;;;;5.33;2.20;;;18.10;99.90;;;;;;5063591;28;20249;-42
2022/08/22 00:53:31;;;;;;;4.43;2.60;;;18.10;99.90;;;;;;5063022;28;20248;-43
2022/08/22 00:56:13;;;;;;;5.83;3.17;;;18.10;99.90;;;;;;5060373;28;20274;-45
2022/08/22 00:59:06;;;;;;;4.83;2.30;;;18.20;99.90;;;;;;5080635;28;20570;-43
2022/08/22 01:01:36;;;;;;;5.87;2.67;;;18.10;99.90;;;;;;5049785;28;20862;-42
2022/08/22 01:04:33;;;;;;;5.80;2.43;;;18.10;99.90;;;;;;5067865;28;20906;-45
2022/08/22 01:07:17;;;;;;;6.37;2.50;;;18.10;99.90;;;;;;5080447;28;20755;-42
2022/08/22 01:09:57;;;;;;;4.73;2.20;;;18.20;99.90;;;;;;5056208;28;20199;-43
2022/08/22 01:12:37;;;;;;;4.10;2.27;;;18.20;99.90;;;;;;5063745;28;20236;-43
2022/08/22 01:15:08;;;;;;;5.07;2.70;;;18.20;99.90;;;;;;5072116;28;20258;-42
2022/08/22 01:18:08;;;;;;;5.10;2.30;;;18.10;99.90;;;;;;5059270;28;20574;-44
2022/08/22 01:21:17;;;;;;;6.03;2.70;;;18.20;99.90;;;;;;5062957;28;20679;-43
2022/08/22 01:24:19;;;;;;;4.13;2.10;;;18.20;99.90;;;;;;5032082;28;20662;-44
2022/08/22 01:27:27;;;;;;;4.67;2.20;;;18.10;99.90;;;;;;5058301;28;20250;-43
2022/08/22 01:30:23;;;;;;;6.47;2.37;;;18.10;99.90;;;;;;5058946;28;20325;-43
2022/08/22 01:33:30;;;;;;;3.83;2.30;;;18.10;99.90;;;;;;5054476;28;20210;-44
2022/08/22 01:36:22;;;;;;;3.97;2.13;;;18.10;99.90;;;;;;5063495;28;20191;-43
2022/08/22 01:39:28;;;;;;;7.50;2.20;;;18.00;99.90;;;;;;5059453;28;20229;-44
2022/08/22 01:42:21;;;;;;;4.07;2.93;;;17.90;99.90;;;;;;5057013;28;20487;-46
2022/08/22 01:45:32;;;;;;;5.47;2.40;;;17.90;99.90;;;;;;5066633;28;20202;-46
2022/08/22 01:48:07;;;;;;;8.80;2.90;;;17.90;99.90;;;;;;5057162;28;20207;-42
2022/08/22 01:50:41;;;;;;;5.57;2.17;;;17.90;99.90;;;;;;5066986;28;20213;-44
2022/08/22 01:53:17;;;;;;;6.40;2.13;;;18.00;99.90;;;;;;5065972;28;20594;-43
2022/08/22 01:55:51;;;;;;;8.00;2.27;;;18.00;99.90;;;;;;5059855;28;20210;-44
2022/08/22 01:58:21;;;;;;;6.57;1.90;;;18.00;99.90;;;;;;5060391;28;20202;-42
2022/08/22 02:01:01;;;;;;;4.77;2.17;;;18.00;99.90;;;;;;5059630;28;20305;-42
2022/08/22 02:03:31;;;;;;;8.23;2.33;;;18.00;99.90;;;;;;5072963;28;20220;-44
2022/08/22 02:06:02;;;;;;;3.83;2.53;;;17.90;99.90;;;;;;5058498;28;20195;-47
2022/08/22 02:08:39;;;;;;;6.07;1.97;;;17.90;99.90;;;;;;5062981;28;20213;-44
2022/08/22 02:11:09;;;;;;;3.83;2.17;;;17.90;99.90;;;;;;5061813;28;20213;-43
2022/08/22 02:13:49;;;;;;;4.97;2.30;;;17.90;99.90;;;;;;5058070;28;20207;-43
2022/08/22 02:16:20;;;;;;;5.93;2.67;;;17.90;99.90;;;;;;5065300;28;20195;-42
2022/08/22 02:18:59;;;;;;;6.23;2.23;;;17.90;99.90;;;;;;5053090;28;20213;-43
2022/08/22 02:21:31;;;;;;;7.80;2.47;;;17.90;99.90;;;;;;5069642;28;20706;-43
2022/08/22 02:24:04;;;;;;;7.73;2.33;;;17.90;99.90;;;;;;5064031;28;20191;-43
2022/08/22 02:26:44;;;;;;;4.37;2.27;;;17.80;99.90;;;;;;5062100;28;20202;-52
2022/08/22 02:29:15;;;;;;;6.50;2.37;;;17.90;99.90;;;;;;5067817;28;20276;-45
2022/08/22 02:31:45;;;;;;;5.70;2.13;;;17.90;99.90;;;;;;5079277;28;20221;-43
2022/08/22 02:34:24;;;;;;;6.60;2.40;;;17.90;99.90;;;;;;5081143;28;20194;-42
2022/08/22 02:36:56;;;;;;;5.63;2.13;;;17.90;99.90;;;;;;5060099;28;20206;-46
2022/08/22 02:39:32;;;;;;;3.63;2.30;;;17.90;99.90;;;;;;5064449;28;20206;-45
2022/08/22 02:42:11;;;;;;;7.23;2.40;;;17.90;99.90;;;;;;5076158;28;20222;-42
2022/08/22 02:44:41;;;;;;;5.47;2.37;;;17.90;99.90;;;;;;5074034;28;20214;-44
2022/08/22 02:47:11;;;;;;;5.90;2.60;;;17.90;99.90;;;;;;5073577;28;20190;-43
2022/08/22 02:49:48;;;;;;;8.37;2.67;;;18.00;99.90;;;;;;5056739;28;20206;-44
2022/08/22 02:52:21;;;;;;;6.03;2.60;;;18.00;99.90;;;;;;5068145;28;20194;-43
2022/08/22 02:54:56;;;;;;;4.50;1.90;;;18.00;99.90;;;;;;5066856;28;20776;-45
2022/08/22 02:57:33;;;;;;;4.23;2.50;;;18.00;99.90;;;;;;5066339;28;20330;-44
2022/08/22 03:00:15;;;;;;;5.13;2.17;;;17.90;99.90;;;;;;5068713;28;20221;-45
2022/08/22 03:03:01;;;;;;;7.70;2.33;;;17.90;99.90;;;;;;5082380;28;20720;-42
2022/08/22 03:05:40;;;;;;;4.43;2.10;;;17.90;99.90;;;;;;5082537;28;20193;-44
2022/08/22 03:08:13;;;;;;;5.80;2.10;;;17.90;99.90;;;;;;5070727;28;20225;-43
2022/08/22 03:10:46;;;;;;;3.70;2.03;;;17.90;99.90;;;;;;5064800;28;20219;-43
2022/08/22 03:13:18;;;;;;;6.37;2.50;;;17.90;99.90;;;;;;5065076;28;20682;-43
2022/08/22 03:15:52;;;;;;;5.67;2.83;;;18.00;99.90;;;;;;5071791;28;20194;-43
2022/08/22 03:18:27;;;;;;;4.73;2.10;;;18.00;99.90;;;;;;5069381;28;20251;-42
2022/08/22 03:20:58;;;;;;;8.63;2.57;;;18.00;99.90;;;;;;5050391;28;20229;-42
2022/08/22 03:23:39;;;;;;;6.07;2.63;;;17.90;99.90;;;;;;5068215;28;20643;-44
2022/08/22 03:26:14;;;;;;;5.77;2.53;;;17.90;99.90;;;;;;5070998;28;20190;-43
2022/08/22 03:28:46;;;;;;;7.43;3.37;;;17.90;99.90;;;;;;5076324;28;20280;-44
2022/08/22 03:31:17;;;;;;;5.60;2.60;;;17.90;99.90;;;;;;5077124;28;20292;-42
2022/08/22 03:33:45;;;;;;;7.23;2.80;;;17.90;99.90;;;;;;5060917;28;20199;-42
2022/08/22 03:36:26;;;;;;;7.30;2.67;;;17.90;99.90;;;;;;5057831;28;20292;-43
2022/08/22 03:39:17;;;;;;;9.00;2.70;;;17.90;99.90;;;;;;5075389;28;20210;-44
2022/08/22 03:42:02;;;;;;;2.63;1.97;;;17.90;99.90;;;;;;5064913;28;20235;-44
2022/08/22 03:45:12;;;;;;;7.77;2.50;;;17.90;99.90;;;;;;5068362;28;20197;-44
2022/08/22 03:48:10;;;;;;;7.10;2.30;;;17.90;99.90;;;;;;5061307;28;20553;-45
2022/08/22 03:51:00;;;;;;;6.27;2.30;;;17.90;99.90;;;;;;5063533;28;20454;-45
2022/08/22 03:54:05;;;;;;;5.53;2.37;;;17.90;99.90;;;;;;5058721;28;20293;-44
2022/08/22 03:56:57;;;;;;;6.37;2.50;;;17.90;99.90;;;;;;5064106;28;20202;-44
2022/08/22 03:59:56;;;;;;;10.73;2.97;;;17.90;99.90;;;;;;5068154;28;20238;-42
2022/08/22 04:02:52;;;;;;;6.10;2.40;;;17.90;99.90;;;;;;5056376;28;20218;-41
2022/08/22 04:05:43;;;;;;;3.80;2.00;;;17.90;99.90;;;;;;5054407;28;20634;-44
2022/08/22 04:08:37;;;;;;;5.60;2.30;;;17.90;99.90;;;;;;5058680;28;20272;-42
2022/08/22 04:11:34;;;;;;;7.20;3.03;;;17.90;99.90;;;;;;5064851;28;20262;-42
2022/08/22 04:14:40;;;;;;;6.93;2.50;;;17.90;99.90;;;;;;5065422;28;20193;-45
2022/08/22 04:17:42;;;;;;;6.27;2.30;;;17.90;99.90;;;;;;5064181;28;20929;-43
2022/08/22 04:20:31;;;;;;;3.80;2.03;;;17.90;99.90;;;;;;5078801;28;20292;-44
2022/08/22 04:23:46;;;;;;;3.90;2.63;;;17.90;99.90;;;;;;5052023;28;20236;-41
2022/08/22 04:26:17;;;;;;;7.47;2.60;;;17.90;99.90;;;;;;5001418;28;23007;-42
2022/08/22 04:28:49;;;;;;;6.13;2.83;;;17.90;99.90;;;;;;5068256;28;20282;-44
2022/08/22 04:31:23;;;;;;;5.13;2.47;;;17.90;99.90;;;;;;5069166;28;20214;-41
2022/08/22 04:33:57;;;;;;;8.13;2.43;;;17.90;99.90;;;;;;5066565;28;20210;-41
2022/08/22 04:36:29;;;;;;;4.50;2.27;;;17.90;99.90;;;;;;5079267;28;20198;-41
2022/08/22 04:39:00;;;;;;;4.83;2.17;;;17.90;99.90;;;;;;5058695;28;20199;-42
2022/08/22 04:41:38;;;;;;;6.33;2.93;;;17.80;99.90;;;;;;5070143;28;20224;-42
2022/08/22 04:44:10;;;;;;;8.33;3.00;;;17.80;99.90;;;;;;5060452;28;20218;-44
2022/08/22 04:46:45;;;;;;;5.37;3.27;;;17.80;99.90;;;;;;5073214;28;20686;-44
2022/08/22 04:49:20;;;;;;;7.00;2.50;;;17.80;99.90;;;;;;5060378;28;20206;-42
2022/08/22 04:51:53;;;;;;;6.40;2.03;;;17.80;99.90;;;;;;5063458;28;20218;-45
2022/08/22 04:54:37;;;;;;;5.63;2.60;;;17.80;99.90;;;;;;5056863;28;20206;-44
2022/08/22 04:57:16;;;;;;;8.13;2.63;;;17.80;99.90;;;;;;5065346;28;21911;-42
2022/08/22 04:59:44;;;;;;;9.17;2.90;;;17.80;99.90;;;;;;5065292;28;20206;-41
2022/08/22 05:02:20;;;;;;;7.10;2.43;;;17.80;99.90;;;;;;5066813;28;20210;-41
2022/08/22 05:04:51;;;;;;;7.00;2.70;;;17.70;99.90;;;;;;5061775;28;20205;-41
2022/08/22 05:07:21;;;;;;;6.07;2.67;;;17.70;99.90;;;;;;5071152;28;20281;-43
2022/08/22 05:09:52;;;;;;;6.47;2.57;;;17.70;99.90;;;;;;5053207;28;20198;-43
2022/08/22 05:12:22;;;;;;;10.70;3.13;;;17.70;99.90;;;;;;5069140;28;20194;-43
2022/08/22 05:14:53;;;;;;;8.27;2.90;;;17.70;99.90;;;;;;5077848;28;20550;-41
2022/08/22 05:17:25;;;;;;;8.30;3.30;;;17.70;99.90;;;;;;5071276;28;20212;-42
2022/08/22 05:19:57;;;;;;;9.70;3.40;;;17.80;99.90;;;;;;5060214;28;20218;-44
2022/08/22 05:22:29;;;;;;;5.47;2.57;;;17.80;99.90;;;;;;5074899;28;20206;-42
2022/08/22 05:25:00;;;;;;;7.50;2.70;;;17.80;99.90;;;;;;5050730;28;20209;-41
2022/08/22 05:27:31;;;;;;;8.67;3.23;;;17.90;99.90;;;;;;5071357;28;20667;-42
2022/08/22 05:30:04;;;;;;;8.40;2.80;;;17.90;99.90;;;;;;5059518;28;20833;-43
2022/08/22 05:32:50;;;;;;;7.50;2.87;;;17.90;99.90;;;;;;5068689;28;20238;-43
2022/08/22 05:35:22;;;;;;;7.00;3.17;;;17.90;99.90;;;;;;5070481;28;20655;-43
2022/08/22 05:37:54;;;;;;;7.43;3.07;;;17.90;99.90;;;;;;5066908;28;20250;-41
2022/08/22 05:40:23;;;;;;;6.87;3.00;;;17.90;99.90;;;;;;5068879;28;20222;-45
2022/08/22 05:42:52;;;;;;;6.20;2.90;;;17.90;99.90;;;;;;5053647;28;20280;-41
2022/08/22 05:45:19;;;;;;;6.83;3.50;;;17.90;99.90;;;;;;5070581;28;20212;-44
2022/08/22 05:47:51;;;;;;;5.03;2.97;;;17.90;99.90;;;;;;5065166;28;20245;-42
2022/08/22 05:50:22;;;;;;;7.13;2.63;;;17.90;99.90;;;;;;5067817;28;20678;-41
2022/08/22 05:53:02;;;;;;;6.23;2.80;;;17.90;99.90;;;;;;5062960;28;20201;-41
2022/08/22 05:55:32;;;;;;;5.47;2.67;;;18.00;99.90;;;;;;5069308;28;20194;-43
2022/08/22 05:58:17;;;;;;;6.77;3.23;;;17.90;99.90;;;;;;5053905;28;20202;-42
2022/08/22 06:00:48;;;;;;;7.80;2.67;;;18.00;99.90;;;;;;5067831;28;20585;-41
2022/08/22 06:03:24;;;;;;;8.40;3.13;;;17.90;99.90;;;;;;5063066;28;20202;-41
2022/08/22 06:05:56;;;;;;;8.93;2.73;;;17.90;99.90;;;;;;5076167;28;20209;-43
2022/08/22 06:08:28;;;;;;;9.63;3.70;;;18.00;99.90;;;;;;5065754;28;20213;-42
2022/08/22 06:11:02;;;;;;;5.97;2.80;;;18.00;99.90;;;;;;5070122;28;20226;-41
2022/08/22 06:13:34;;;;;;;7.70;3.10;;;17.90;99.90;;;;;;5060964;28;20741;-41
2022/08/22 06:16:09;;;;;;;7.57;2.60;;;17.90;99.90;;;;;;5072434;28;20195;-42
2022/08/22 06:18:40;;;;;;;5.27;2.93;;;17.90;99.90;;;;;;5068091;28;20694;-42
2022/08/22 06:21:10;;;;;;;4.40;2.70;;;18.00;99.90;;;;;;5072919;28;20841;-41
2022/08/22 06:23:42;;;;;;;7.00;2.57;;;18.00;99.90;;;;;;5070090;28;20202;-43
2022/08/22 06:26:11;;;;;;;4.83;2.53;;;18.00;99.90;;;;;;5076161;28;20959;-44
2022/08/22 06:28:40;;;;;;;7.03;3.10;;;18.00;99.90;;;;;;5055035;28;20299;-44
2022/08/22 06:31:14;;;;;;;10.23;2.90;;;18.00;99.90;;;;;;5070104;28;20291;-41
2022/08/22 06:33:44;;;;;;;5.77;2.43;;;18.00;99.90;;;;;;5060906;28;20203;-44
2022/08/22 06:36:33;;;;;;;4.23;2.00;;;17.90;99.90;;;;;;5073105;28;20193;-42
2022/08/22 06:39:09;;;;;;;9.60;2.23;;;18.00;99.90;;;;;;5065657;28;20202;-43
2022/08/22 06:41:40;;;;;;;4.83;2.60;;;18.00;99.90;;;;;;5074975;28;20554;-45
2022/08/22 06:44:15;;;;;;;7.73;2.40;;;18.00;99.90;;;;;;5055173;28;20208;-44
2022/08/22 06:46:47;;;;;;;8.83;2.90;;;18.10;99.90;;;;;;5072122;28;20545;-45
2022/08/22 06:49:16;;;;;;;5.90;2.67;;;18.20;99.90;;;;;;5070486;28;20200;-58
2022/08/22 06:51:45;;;;;;;8.13;2.80;;;18.20;99.90;;;;;;5077748;28;20580;-59
2022/08/22 06:54:18;;;;;;;4.33;2.40;;;18.30;99.90;;;;;;5067959;28;20207;-59
2022/08/22 06:56:49;;;;;;;5.83;2.20;;;18.40;99.90;;;;;;5067207;28;20203;-59
2022/08/22 06:59:18;;;;;;;5.33;1.93;;;18.40;99.90;;;;;;5060843;28;20221;-59
2022/08/22 07:01:51;;;;;;;7.77;2.10;;;18.50;99.90;;;;;;5070785;28;20717;-58
2022/08/22 07:04:25;;;;;;;4.73;2.07;;;18.60;99.90;;;;;;5066797;28;20220;-59
2022/08/22 07:06:54;;;;;;;3.43;1.87;;;18.60;99.90;;;;;;5075979;28;20199;-44
2022/08/22 07:09:26;;;;;;;4.47;1.97;;;18.70;99.90;;;;;;5075046;28;20252;-42
2022/08/22 07:11:54;;;;;;;6.90;1.63;;;18.70;99.90;;;;;;5059741;28;20316;-43
2022/08/22 07:14:28;;;;;;;2.37;1.53;;;18.70;99.90;;;;;;5060567;28;20263;-44
2022/08/22 07:16:56;;;;;;;3.57;1.70;;;18.70;99.90;;;;;;5071724;28;20203;-45
2022/08/22 07:19:29;;;;;;;2.50;1.30;;;18.70;99.90;;;;;;5072188;28;20685;-45
2022/08/22 07:21:57;;;;;;;4.83;1.53;;;18.70;99.90;;;;;;5056675;28;20226;-43
2022/08/22 07:24:28;;;;;;;6.00;1.60;;;18.70;99.90;;;;;;5073092;28;20198;-45
2022/08/22 07:27:14;;;;;;;3.70;1.67;;;18.70;99.90;;;;;;5061128;28;20236;-41
2022/08/22 07:29:47;;;;;;;7.73;1.90;;;18.80;99.90;;;;;;5061987;28;20344;-41
2022/08/22 07:32:19;;;;;;;3.87;1.60;;;18.80;99.90;;;;;;5074015;28;20195;-41
2022/08/22 07:35:02;;;;;;;3.20;1.37;;;18.80;99.90;;;;;;5067722;28;20371;-42
2022/08/22 07:37:46;;;;;;;2.80;1.80;;;18.90;99.90;;;;;;5068619;28;20194;-41
2022/08/22 07:40:19;;;;;;;4.80;1.90;;;19.00;99.90;;;;;;5060733;28;20233;-43
2022/08/22 07:42:51;;;;;;;3.63;1.63;;;19.00;99.90;;;;;;5061071;28;20226;-44
2022/08/22 07:45:24;;;;;;;3.23;1.50;;;19.00;99.90;;;;;;5052701;28;20685;-43
2022/08/22 07:48:04;;;;;;;3.13;1.53;;;19.10;99.90;;;;;;5078004;28;20251;-41
2022/08/22 07:50:38;;;;;;;2.10;1.80;;;19.10;99.90;;;;;;5061829;28;20230;-41
2022/08/22 07:53:12;;;;;;;3.33;1.70;;;19.20;99.90;;;;;;5067362;28;20198;-41
2022/08/22 07:55:42;;;;;;;4.40;1.70;;;19.30;99.90;;;;;;5063845;28;20195;-41
2022/08/22 07:58:12;;;;;;;3.77;1.50;;;19.50;99.90;;;;;;5057071;28;20202;-42
2022/08/22 08:00:43;;;;;;;5.20;1.87;;;19.50;99.90;;;;;;5057019;28;20261;-41
2022/08/22 08:03:11;;;;;;;6.63;1.67;;;19.60;99.90;;;;;;5068526;28;20198;-41
2022/08/22 08:05:43;;;;;;;5.80;1.53;;;19.70;99.90;;;;;;5076008;28;20208;-40
2022/08/22 08:08:18;;;;;;;3.50;2.20;;;19.80;99.90;;;;;;5067344;28;20765;-42
2022/08/22 08:10:47;;;;;;;2.60;1.80;;;19.90;99.90;;;;;;5064946;28;20225;-41
2022/08/22 08:13:21;;;;;;;3.63;1.20;;;20.00;99.90;;;;;;5053995;28;20206;-42
2022/08/22 08:15:50;;;;;;;4.93;1.90;;;20.10;99.90;;;;;;5059660;28;23256;-41
2022/08/22 08:18:22;;;;;;;3.80;1.10;;;20.20;99.90;;;;;;5068574;28;20752;-40
2022/08/22 08:20:53;;;;;;;5.70;1.70;;;20.30;99.90;;;;;;5057963;28;20226;-42
2022/08/22 08:23:21;;;;;;;3.67;1.33;;;20.50;99.90;;;;;;5066538;28;20197;-40
2022/08/22 08:25:54;;;;;;;5.53;1.90;;;20.70;99.90;;;;;;5062389;28;20203;-39
2022/08/22 08:28:33;;;;;;;3.77;1.70;;;20.80;99.90;;;;;;5062293;28;20201;-41
2022/08/22 08:31:07;;;;;;;4.50;2.03;;;20.90;99.90;;;;;;5057017;28;20213;-41
2022/08/22 08:33:35;;;;;;;6.18;2.17;;;21.00;99.90;;;;;;5068140;28;20467;-45
2022/08/22 08:36:10;;;;;;;7.80;1.90;;;21.10;99.90;;;;;;5068847;28;20209;-44
2022/08/22 08:38:45;;;;;;;5.63;1.87;;;21.20;99.90;;;;;;5066287;28;20216;-42
2022/08/22 08:41:52;;;;;;;4.13;1.80;;;21.30;99.90;;;;;;5071220;28;20220;-42
2022/08/22 08:44:34;;;;;;;3.93;1.53;;;21.40;99.90;;;;;;5064020;28;20216;-40
2022/08/22 08:47:32;;;;;;;4.90;2.10;;;21.50;99.90;;;;;;5060311;28;20202;-40
2022/08/22 08:50:15;;;;;;;4.60;1.70;;;21.50;99.90;;;;;;5069435;28;20198;-42
2022/08/22 08:53:12;;;;;;;3.43;1.60;;;21.60;99.90;;;;;;5063120;28;20212;-42
2022/08/22 08:55:49;;;;;;;2.93;1.60;;;21.70;99.90;;;;;;5065570;28;20279;-41
2022/08/22 08:58:32;;;;;;;3.30;1.80;;;21.70;99.90;;;;;;5060870;28;20202;-40
2022/08/22 09:01:21;;;;;;;3.73;1.80;;;21.80;99.90;;;;;;5069385;28;20222;-42
2022/08/22 09:04:23;;;;;;;5.67;1.97;;;21.90;99.90;;;;;;5067150;28;20190;-41
2022/08/22 09:07:22;;;;;;;3.60;1.60;;;22.00;99.90;;;;;;5063483;28;20295;-42
2022/08/22 09:10:19;;;;;;;4.23;2.07;;;22.10;99.90;;;;;;5066606;28;20193;-42
2022/08/22 09:13:01;;;;;;;5.73;2.00;;;22.10;99.90;;;;;;5068282;28;20198;-42
2022/08/22 09:15:46;;;;;;;4.20;2.00;;;22.20;99.90;;;;;;5056317;28;20210;-43
2022/08/22 09:18:47;;;;;;;4.57;2.03;;;22.30;99.90;;;;;;5051478;28;20202;-41
2022/08/22 09:21:54;;;;;;;4.63;1.90;;;22.40;99.90;;;;;;5063015;28;20309;-42
2022/08/22 09:24:47;;;;;;;7.43;1.60;;;22.50;99.90;;;;;;5062925;28;20213;-43
2022/08/22 09:27:20;;;;;;;4.45;1.65;;;22.50;99.90;;;;;;5064502;28;20202;-42
2022/08/22 09:29:50;;;;;;;7.23;1.97;;;22.60;99.90;;;;;;5054474;28;20191;-42
2022/08/22 09:32:20;;;;;;;7.38;1.73;;;22.50;99.90;;;;;;5072091;28;20194;-41
2022/08/22 09:35:00;;;;;;;4.65;2.03;;;22.50;99.90;;;;;;5051569;28;20236;-41
2022/08/22 09:37:38;;;;;;;7.40;1.92;;;22.60;99.90;;;;;;5065426;28;20276;-41
2022/08/22 09:40:15;;;;;;;2.40;1.45;;;22.70;99.90;;;;;;5064874;28;20202;-43
2022/08/22 09:42:53;;;;;;;5.93;1.95;;;22.80;99.90;;;;;;5055277;28;20228;-42
2022/08/22 09:45:38;;;;;;;4.00;1.70;;;22.90;99.90;;;;;;5062381;28;20287;-42
2022/08/22 09:48:15;;;;;;;3.95;1.88;;;23.00;99.90;;;;;;5058248;28;20336;-41
2022/08/22 09:50:48;;;;;;;3.75;1.30;;;23.00;99.90;;;;;;5055272;28;20234;-42
2022/08/22 09:53:42;;;;;;;4.75;1.40;;;23.00;99.90;;;;;;5068857;28;20198;-41
2022/08/22 09:56:13;;;;;;;3.53;1.60;;;23.10;99.90;;;;;;5072028;28;20228;-42
2022/08/22 09:58:48;;;;;;;5.60;1.85;;;23.10;99.90;;;;;;5061330;28;20217;-40
2022/08/22 10:01:25;;;;;;;8.05;2.08;;;23.20;99.90;;;;;;5063422;28;20229;-41
2022/08/22 10:04:28;;;;;;;3.42;1.58;;;23.30;99.90;;;;;;5061968;28;20347;-42
2022/08/22 10:07:10;;;;;;;6.07;1.50;;;23.30;99.90;;;;;;5064284;28;20673;-41
2022/08/22 10:09:49;;;;;;;3.40;1.98;;;23.50;99.90;;;;;;5060088;28;20213;-41
2022/08/22 10:12:25;;;;;;;3.30;1.58;;;23.70;99.90;;;;;;5072346;28;20190;-40
2022/08/22 10:15:09;;;;;;;4.28;1.63;;;23.80;99.90;;;;;;5061668;28;20206;-41
2022/08/22 10:17:42;;;;;;;8.10;2.08;;;24.00;99.90;;;;;;5066630;28;20961;-42
2022/08/22 10:20:22;;;;;;;3.88;1.83;;;24.20;99.60;;;;;;5058608;28;20281;-39
2022/08/22 10:22:59;;;;;;;7.80;2.22;;;24.30;99.10;;;;;;5069122;28;20223;-39
2022/08/22 10:25:35;;;;;;;2.33;1.60;;;24.20;98.70;;;;;;5059403;28;20569;-39
2022/08/22 10:28:32;;;;;;;2.05;1.40;;;24.20;98.80;;;;;;5076530;28;20195;-40
2022/08/22 10:31:22;;;;;;;3.78;1.38;;;24.40;97.90;;;;;;5070157;28;20230;-38
2022/08/22 10:34:05;;;;;;;3.40;1.77;;;24.50;97.50;;;;;;5067806;28;20931;-40
2022/08/22 10:36:52;;;;;;;6.78;1.80;;;24.40;97.40;;;;;;5051829;28;20811;-41
2022/08/22 10:39:26;;;;;;;4.30;1.40;;;24.20;97.90;;;;;;5065623;28;20210;-39
2022/08/22 10:42:05;;;;;;;4.53;1.35;;;24.20;97.80;;;;;;5060335;28;20218;-39
2022/08/22 10:44:40;;;;;;;4.30;1.50;;;24.30;97.20;;;;;;5078141;28;20217;-41
2022/08/22 10:47:15;;;;;;;6.82;1.83;;;24.30;96.90;;;;;;5063493;28;20208;-48
2022/08/22 10:49:49;;;;;;;6.47;2.10;;;24.50;96.60;;;;;;5072059;28;20654;-48
2022/08/22 10:52:22;;;;;;;4.72;1.70;;;24.70;96.20;;;;;;5050827;28;20222;-48
2022/08/22 10:54:52;;;;;;;3.63;1.63;;;24.60;95.90;;;;;;5062700;28;20202;-47
2022/08/22 10:57:45;;;;;;;3.65;2.00;;;24.50;96.30;;;;;;5059418;28;20773;-48
2022/08/22 11:00:19;;;;;;;3.95;1.45;;;24.50;96.10;;;;;;5067087;28;20218;-48
2022/08/22 11:02:59;;;;;;;5.97;1.58;;;24.50;96.10;;;;;;5060799;28;20303;-48
2022/08/22 11:05:32;;;;;;;4.40;1.40;;;24.50;95.90;;;;;;5056102;28;20951;-48
2022/08/22 11:08:23;;;;;;;2.70;1.80;;;24.60;95.80;;;;;;5070336;28;20205;-48
2022/08/22 11:11:04;;;;;;;5.60;2.08;;;24.70;95.20;;;;;;5061747;28;20228;-48
2022/08/22 11:13:40;;;;;;;2.47;1.65;;;24.70;94.80;;;;;;5066444;28;20193;-47
2022/08/22 11:16:29;;;;;;;2.22;1.55;;;24.70;94.80;;;;;;5066930;28;20210;-47
2022/08/22 11:19:13;;;;;;;6.22;2.13;;;24.70;94.80;;;;;;5070220;28;20865;-48
2022/08/22 11:21:55;;;;;;;4.97;1.60;;;24.70;94.70;;;;;;5057616;28;20219;-39
2022/08/22 11:25:01;;;;;;;2.22;1.63;;;24.80;94.50;;;;;;5055906;28;20498;-40
2022/08/22 11:27:34;;;;;;;4.68;1.83;;;25.00;94.90;;;;;;5065491;28;20260;-39
2022/08/22 11:30:06;;;;;;;3.63;2.00;;;25.30;94.10;;;;;;5062196;28;20195;-39
2022/08/22 11:32:38;;;;;;;3.65;1.40;;;25.30;94.00;;;;;;5063551;28;24029;-41
2022/08/22 11:35:16;;;;;;;6.10;2.53;;;25.50;93.80;;;;;;5068584;28;20194;-41
2022/08/22 11:37:50;;;;;;;4.20;1.40;;;25.60;93.60;;;;;;5063915;28;20202;-40
2022/08/22 11:40:26;;;;;;;5.32;1.48;;;25.60;93.50;;;;;;5057057;28;20230;-40
2022/08/22 11:43:01;;;;;;;2.58;1.33;;;25.60;93.70;;;;;;5040644;28;996354;-39
2022/08/22 11:45:36;;;;;;;5.80;1.77;;;25.70;93.20;;;;;;5065108;28;20202;-42
2022/08/22 11:48:22;;;;;;;1.83;1.30;;;25.70;92.70;;;;;;5067816;28;20722;-40
2022/08/22 11:50:55;;;;;;;4.25;1.48;;;25.80;92.50;;;;;;5069255;28;20218;-41
2022/08/22 11:53:30;;;;;;;4.32;1.45;;;25.80;92.50;;;;;;5064977;28;20187;-40
2022/08/22 11:56:09;;;;;;;5.32;1.48;;;25.80;92.70;;;;;;5060461;28;20632;-39
2022/08/22 11:58:45;;;;;;;7.18;2.10;;;26.00;92.30;;;;;;5075215;28;20217;-42
2022/08/22 12:01:16;;;;;;;4.47;1.42;;;26.10;97.40;;;;;;5075442;28;20221;-39
2022/08/22 12:03:52;;;;;;;4.78;1.35;;;25.90;97.70;;;;;;5066708;28;20226;-39
2022/08/22 12:06:44;;;;;;;6.30;2.05;;;26.30;96.90;;;;;;5064641;28;20224;-41
2022/08/22 12:09:19;;;;;;;4.38;1.77;;;26.10;91.50;;;;;;5068476;28;20202;-38
2022/08/22 12:11:59;;;;;;;5.05;1.77;;;26.10;91.80;;;;;;5057754;28;20220;-40
2022/08/22 12:14:33;;;;;;;3.80;1.40;;;26.20;92.30;;;;;;5067592;28;20189;-40
2022/08/22 12:17:14;;;;;;;3.55;1.85;;;26.50;91.70;;;;;;5074219;28;20202;-38
2022/08/22 12:19:51;;;;;;;2.20;1.48;;;26.70;91.30;;;;;;5070998;28;20209;-40
2022/08/22 12:22:45;;;;;;;3.35;1.38;;;26.80;91.20;;;;;;5057361;28;20217;-39
2022/08/22 12:25:22;;;;;;;2.40;1.38;;;26.80;90.00;;;;;;5065555;28;20198;-39
2022/08/22 12:28:07;;;;;;;2.70;1.33;;;26.90;89.90;;;;;;5059770;28;20202;-44
2022/08/22 12:30:41;;;;;;;4.68;1.63;;;26.90;88.80;;;;;;5063998;28;20245;-43
2022/08/22 12:33:30;;;;;;;3.58;1.77;;;26.70;89.90;;;;;;5068201;28;20205;-41
2022/08/22 12:36:11;;;;;;;2.92;1.40;;;26.50;89.20;;;;;;5052390;28;20658;-41
2022/08/22 12:38:55;;;;;;;4.75;1.50;;;26.10;89.50;;;;;;5060576;28;20202;-41
2022/08/22 12:41:38;;;;;;;5.38;2.00;;;26.00;89.50;;;;;;5068030;28;20214;-42
2022/08/22 12:44:35;;;;;;;3.78;1.67;;;25.90;89.80;;;;;;5047593;28;20364;-41
2022/08/22 12:47:17;;;;;;;4.57;1.75;;;25.80;90.00;;;;;;5066546;28;20927;-41
2022/08/22 12:50:05;;;;;;;4.05;1.65;;;25.70;90.10;;;;;;5071873;28;20559;-40
2022/08/22 12:52:51;;;;;;;2.50;1.50;;;25.80;90.50;;;;;;5065966;28;20746;-42
2022/08/22 12:55:32;;;;;;;3.72;1.88;;;25.70;89.80;;;;;;5059657;28;20198;-39
2022/08/22 12:58:07;;;;;;;3.58;1.60;;;25.60;90.10;;;;;;5052556;28;20201;-43
2022/08/22 13:00:38;;;;;;;2.42;1.40;;;25.50;90.10;;;;;;5074818;28;20217;-40
2022/08/22 13:03:09;;;;;;;3.92;2.00;;;25.60;90.30;;;;;;5068010;28;20225;-40
2022/08/22 13:05:38;;;;;;;5.32;1.30;;;25.60;90.30;;;;;;5074312;28;20199;-42
2022/08/22 13:08:10;;;;;;;3.85;1.55;;;25.70;89.90;;;;;;5048389;28;21141;-41
2022/08/22 13:10:45;;;;;;;3.60;1.65;;;25.80;89.00;;;;;;5064009;28;20563;-43
2022/08/22 13:13:24;;;;;;;3.70;1.55;;;25.90;88.40;;;;;;5065171;28;20190;-42
2022/08/22 13:15:57;;;;;;;2.85;1.60;;;26.30;88.10;;;;;;5057064;28;20206;-41
2022/08/22 13:18:27;;;;;;;3.63;1.50;;;26.70;87.00;;;;;;5072955;28;20194;-41
2022/08/22 13:20:57;;;;;;;2.15;1.40;;;27.00;85.00;;;;;;5061017;28;20293;-40
2022/08/22 13:23:28;;;;;;;3.83;1.33;;;26.90;85.00;;;;;;5062131;28;20317;-39
2022/08/22 13:26:07;;;;;;;2.67;1.70;;;27.10;86.50;;;;;;5056622;28;20371;-40
2022/08/22 13:28:41;;;;;;;4.28;2.13;;;27.70;85.60;;;;;;5073350;28;20206;-41
2022/08/22 13:31:18;;;;;;;2.85;2.08;;;28.30;80.50;;;;;;5057171;28;20224;-40
2022/08/22 13:33:46;;;;;;;4.97;1.80;;;28.30;81.60;;;;;;5066444;28;20206;-41
2022/08/22 13:36:16;;;;;;;2.95;1.70;;;28.40;79.80;;;;;;5080896;28;20789;-40
2022/08/22 13:38:49;;;;;;;2.38;1.60;;;28.20;78.80;;;;;;5060327;28;20581;-39
2022/08/22 13:41:23;;;;;;;4.60;1.55;;;27.90;78.90;;;;;;5058288;28;20323;-42
2022/08/22 13:44:09;;;;;;;4.60;1.52;;;27.60;80.10;;;;;;5059220;28;20739;-40